Terminal Aerodrome Forecast
Issued by NWS

Home | Current Version | Previous Version | Text Only | Print | Product List | Glossary On
Versions: 1 2 3 4 5 6 7 8 9 10 11 12 13 14 15 16 17 18 19 20 21 22 23 24 25 26
261
FTUS45 KPSR 231738
TAFPHX
TAF
KPHX 231738Z 2318/2424 VRB04KT P6SM FEW120 SCT250
     FM232000 24008KT P6SM FEW100 SCT250
     FM240300 14014G22KT P6SM VCSH BKN100 BKN200
     FM240700 11006KT P6SM FEW090 BKN120 BKN200
     FM242200 23006KT P6SM SCT100=

USA.gov is the U.S. government's official web portal to all federal, state and local government web resources and services.